createdAt,value
2017-07-21T00:02:04.846Z,99.90
2017-07-21T00:04:42.881Z,99.90
2017-07-21T00:07:11.054Z,99.90
2017-07-21T00:09:41.968Z,99.90
2017-07-21T00:12:10.113Z,99.90
2017-07-21T00:14:38.239Z,99.90
2017-07-21T00:17:07.902Z,99.90
2017-07-21T00:19:36.023Z,99.90
2017-07-21T00:22:25.969Z,99.90
2017-07-21T00:24:55.068Z,99.90
2017-07-21T00:27:27.118Z,99.90
2017-07-21T00:29:56.714Z,99.90
2017-07-21T00:32:30.412Z,99.90
2017-07-21T00:34:58.523Z,99.90
2017-07-21T00:37:26.658Z,99.90
2017-07-21T00:39:54.789Z,99.90
2017-07-21T00:42:22.973Z,99.90
2017-07-21T00:44:51.698Z,99.90
2017-07-21T00:47:20.067Z,99.90
2017-07-21T00:49:48.246Z,99.90
2017-07-21T00:52:16.410Z,99.90
2017-07-21T00:54:45.782Z,99.90
2017-07-21T00:57:21.383Z,99.90
2017-07-21T00:59:50.556Z,99.90
2017-07-21T01:02:18.688Z,99.90
2017-07-21T01:04:48.715Z,99.90
2017-07-21T01:07:17.590Z,99.90
2017-07-21T01:09:51.354Z,99.90
2017-07-21T01:12:19.465Z,99.90
2017-07-21T01:14:47.584Z,99.90
2017-07-21T01:20:16.928Z,99.90
2017-07-21T01:22:45.698Z,99.90
2017-07-21T01:25:14.485Z,99.90
2017-07-21T01:27:42.644Z,99.90
2017-07-21T01:30:10.775Z,99.90
2017-07-21T01:32:40.849Z,99.90
2017-07-21T01:35:10.745Z,99.90
2017-07-21T01:37:38.871Z,99.90
2017-07-21T01:40:10.962Z,99.90
2017-07-21T01:42:40.038Z,99.90
2017-07-21T01:45:08.150Z,99.90
2017-07-21T01:47:43.376Z,99.90
2017-07-21T01:50:13.406Z,99.90
2017-07-21T01:52:41.734Z,99.90
2017-07-21T01:55:14.757Z,99.90
2017-07-21T01:57:43.667Z,99.90
2017-07-21T02:00:11.815Z,99.90
2017-07-21T02:02:41.855Z,99.90
2017-07-21T02:05:09.978Z,99.90
2017-07-21T02:07:38.839Z,99.90
2017-07-21T02:10:14.113Z,99.90
2017-07-21T02:12:42.210Z,99.90
2017-07-21T02:15:10.322Z,99.90
2017-07-21T02:17:42.478Z,99.90
2017-07-21T02:20:27.541Z,99.90
2017-07-21T02:22:56.643Z,99.90
2017-07-21T02:25:28.306Z,99.90
2017-07-21T02:28:08.712Z,99.90
2017-07-21T02:30:36.871Z,99.90
2017-07-21T02:33:05.845Z,99.90
2017-07-21T02:35:33.954Z,99.90
2017-07-21T02:38:02.078Z,99.90
2017-07-21T02:40:31.850Z,99.90
2017-07-21T02:43:01.939Z,99.90
2017-07-21T02:45:30.047Z,99.90
2017-07-21T02:47:58.175Z,99.90
2017-07-21T02:50:27.230Z,99.90
2017-07-21T02:52:55.336Z,99.90
2017-07-21T02:55:23.426Z,99.90
2017-07-21T02:57:54.144Z,99.90
2017-07-21T03:00:38.137Z,99.90
2017-07-21T03:03:08.663Z,99.90
2017-07-21T03:05:36.784Z,99.90
2017-07-21T03:08:05.405Z,99.90
2017-07-21T03:10:33.510Z,99.90
2017-07-21T03:13:08.549Z,99.90
2017-07-21T03:15:48.038Z,99.90
2017-07-21T03:18:18.530Z,99.90
2017-07-21T03:20:46.690Z,99.90
2017-07-21T03:23:23.316Z,99.90
2017-07-21T03:25:51.413Z,99.90
2017-07-21T03:28:19.542Z,99.90
2017-07-21T03:30:47.669Z,99.90
2017-07-21T03:33:16.996Z,99.90
2017-07-21T03:35:45.106Z,99.90
2017-07-21T03:38:18.423Z,99.90
2017-07-21T03:40:53.974Z,99.90
2017-07-21T03:43:22.876Z,99.90
2017-07-21T03:45:51.018Z,99.90
2017-07-21T03:48:19.121Z,99.90
2017-07-21T03:50:47.226Z,99.90
2017-07-21T03:53:25.174Z,99.90
2017-07-21T03:55:53.292Z,99.90
2017-07-21T03:58:41.731Z,99.90
2017-07-21T04:01:09.876Z,99.90
2017-07-21T04:03:38.738Z,99.90
2017-07-21T04:06:07.597Z,99.90
2017-07-21T04:08:35.722Z,99.90
2017-07-21T04:11:09.010Z,99.90
2017-07-21T04:13:37.152Z,99.90
2017-07-21T04:16:05.251Z,99.90
2017-07-21T04:18:34.155Z,99.90
2017-07-21T04:21:08.382Z,99.90
2017-07-21T04:23:36.514Z,99.90
2017-07-21T04:26:04.689Z,99.90
2017-07-21T04:28:32.803Z,99.90
2017-07-21T04:31:01.682Z,99.90
2017-07-21T04:33:29.828Z,99.90
2017-07-21T04:35:57.923Z,99.90
2017-07-21T04:38:26.051Z,99.90
2017-07-21T04:40:54.185Z,99.90
2017-07-21T04:43:22.299Z,99.90
2017-07-21T04:45:50.409Z,99.90
2017-07-21T04:48:19.293Z,99.90
2017-07-21T04:50:58.392Z,99.90
2017-07-21T04:53:26.495Z,99.90
2017-07-21T04:55:54.595Z,99.90
2017-07-21T04:58:22.710Z,99.90
2017-07-21T05:00:50.837Z,99.90
2017-07-21T05:03:22.330Z,99.90
2017-07-21T05:05:50.464Z,99.90
2017-07-21T05:08:19.600Z,99.90
2017-07-21T05:10:47.764Z,99.90
2017-07-21T05:13:17.856Z,99.90
2017-07-21T05:15:46.782Z,99.90
2017-07-21T05:18:14.874Z,99.90
2017-07-21T05:21:02.751Z,99.90
2017-07-21T05:23:36.650Z,99.90
2017-07-21T05:26:04.867Z,99.90
2017-07-21T05:28:32.991Z,99.90
2017-07-21T05:31:08.774Z,99.90
2017-07-21T05:33:36.920Z,99.90
2017-07-21T05:36:05.009Z,99.90
2017-07-21T05:38:33.196Z,99.90
2017-07-21T05:41:01.324Z,99.90
2017-07-21T05:43:29.441Z,99.90
2017-07-21T05:45:57.574Z,99.90
2017-07-21T05:48:25.690Z,99.90
2017-07-21T05:51:00.009Z,99.90
2017-07-21T05:53:29.106Z,99.90
2017-07-21T05:55:57.246Z,99.90
2017-07-21T05:58:25.449Z,99.90
2017-07-21T06:00:53.604Z,99.90
2017-07-21T06:03:22.521Z,99.90
2017-07-21T06:05:50.636Z,99.90
2017-07-21T06:08:18.761Z,99.90
2017-07-21T06:10:55.549Z,99.90
2017-07-21T06:13:28.461Z,99.90
2017-07-21T06:16:16.734Z,99.90
2017-07-21T06:18:51.827Z,99.90
2017-07-21T06:21:27.810Z,99.90
2017-07-21T06:23:55.951Z,99.90
2017-07-21T06:26:29.043Z,99.90
2017-07-21T06:29:00.061Z,99.90
2017-07-21T06:31:28.278Z,99.90
2017-07-21T06:33:56.679Z,99.90
2017-07-21T06:36:27.314Z,99.90
2017-07-21T06:38:55.576Z,99.90
2017-07-21T06:41:23.831Z,99.90
2017-07-21T06:43:52.012Z,99.90
2017-07-21T06:46:21.212Z,99.90
2017-07-21T06:48:49.499Z,99.90
2017-07-21T06:51:18.111Z,99.90
2017-07-21T06:53:46.283Z,99.90
2017-07-21T06:56:14.731Z,99.90
2017-07-21T06:58:43.764Z,99.90
2017-07-21T07:01:11.892Z,99.90
2017-07-21T07:03:40.312Z,99.90
2017-07-21T07:06:08.626Z,99.90
2017-07-21T07:08:39.098Z,99.90
2017-07-21T07:11:09.467Z,99.90
2017-07-21T07:13:37.896Z,99.90
2017-07-21T07:16:06.074Z,99.90
2017-07-21T07:18:35.243Z,99.90
2017-07-21T07:21:03.401Z,99.90
2017-07-21T07:23:31.980Z,99.90
2017-07-21T07:26:00.493Z,99.90
2017-07-21T07:28:28.622Z,99.90
2017-07-21T07:30:58.478Z,99.90
2017-07-21T07:33:30.184Z,99.90
2017-07-21T07:36:04.230Z,99.90
2017-07-21T07:38:37.426Z,99.90
2017-07-21T07:41:06.203Z,99.90
2017-07-21T07:43:35.107Z,99.90
2017-07-21T07:46:03.269Z,99.90
2017-07-21T07:48:32.195Z,99.90
2017-07-21T07:51:01.196Z,99.90
2017-07-21T07:53:33.898Z,99.90
2017-07-21T07:56:02.028Z,99.90
2017-07-21T07:58:34.064Z,99.90
2017-07-21T08:01:02.268Z,99.90
2017-07-21T08:03:30.370Z,99.90
2017-07-21T08:06:02.726Z,99.90
2017-07-21T08:08:37.081Z,99.90
2017-07-21T08:11:05.200Z,99.90
2017-07-21T08:13:36.534Z,99.90
2017-07-21T08:16:07.035Z,99.90
2017-07-21T08:18:36.821Z,99.90
2017-07-21T08:21:05.913Z,99.90
2017-07-21T08:23:34.647Z,99.90
2017-07-21T08:26:05.748Z,99.90
2017-07-21T08:28:34.803Z,99.90
2017-07-21T08:31:09.328Z,99.90
2017-07-21T08:33:37.430Z,99.90
2017-07-21T08:36:08.771Z,99.90
2017-07-21T08:38:39.009Z,99.90
2017-07-21T08:41:08.739Z,99.90
2017-07-21T08:43:37.631Z,99.90
2017-07-21T08:46:07.076Z,99.90
2017-07-21T08:48:36.677Z,99.90
2017-07-21T08:51:04.868Z,99.90
2017-07-21T08:53:34.951Z,99.90
2017-07-21T09:37:08.166Z,99.90
2017-07-21T09:39:46.212Z,99.90
2017-07-21T09:42:15.820Z,99.90
2017-07-21T09:44:53.297Z,99.90
2017-07-21T14:54:19.120Z,99.90
2017-07-21T14:56:47.243Z,80.20
2017-07-21T14:59:15.378Z,79.90
2017-07-21T15:01:43.484Z,79.50
2017-07-21T15:04:11.610Z,78.00
2017-07-21T15:06:39.767Z,77.10
2017-07-21T15:09:07.927Z,76.30
2017-07-21T15:11:36.143Z,75.40
2017-07-21T15:14:04.346Z,75.40
2017-07-21T15:16:32.506Z,75.20
2017-07-21T15:19:00.699Z,74.30
2017-07-21T15:21:36.448Z,74.40
2017-07-21T15:24:04.580Z,74.00
2017-07-21T15:26:33.682Z,73.10
2017-07-21T15:29:01.956Z,72.70
2017-07-21T15:31:30.204Z,71.70
2017-07-21T15:33:58.514Z,72.30
2017-07-21T15:36:26.858Z,72.70
2017-07-21T15:38:55.092Z,74.70
2017-07-21T15:41:23.232Z,77.20
2017-07-21T15:43:53.694Z,78.60
2017-07-21T15:46:24.839Z,78.50
2017-07-21T15:48:54.934Z,80.40
2017-07-21T15:51:33.861Z,82.10
2017-07-21T15:54:02.010Z,83.10
2017-07-21T15:56:30.238Z,82.70
2017-07-21T15:58:58.411Z,83.90
2017-07-21T16:01:26.556Z,84.50
2017-07-21T16:03:54.702Z,85.60
2017-07-21T16:06:22.869Z,85.90
2017-07-21T16:08:51.095Z,85.40
2017-07-21T16:11:19.235Z,86.10
2017-07-21T16:13:47.380Z,86.40
2017-07-21T16:16:23.334Z,86.60
2017-07-21T16:18:52.544Z,87.50
2017-07-21T16:21:31.687Z,87.90
2017-07-21T16:24:07.130Z,86.70
2017-07-21T16:26:37.183Z,86.20
2017-07-21T16:29:08.088Z,85.70
2017-07-21T16:31:36.222Z,85.60
2017-07-21T16:34:04.414Z,86.00
2017-07-21T16:36:33.315Z,85.90
2017-07-21T16:39:01.487Z,85.80
2017-07-21T16:41:29.923Z,86.40
2017-07-21T16:43:59.858Z,86.90
2017-07-21T16:46:28.036Z,86.70
2017-07-21T16:48:56.168Z,87.70
2017-07-21T16:51:25.175Z,88.60
2017-07-21T16:53:53.880Z,88.40
2017-07-21T16:56:22.395Z,89.20
2017-07-21T16:58:50.555Z,90.10
2017-07-21T17:01:18.740Z,90.10
2017-07-21T17:03:47.672Z,90.10
2017-07-21T17:06:16.640Z,90.10
2017-07-21T17:08:44.988Z,90.00
2017-07-21T17:11:15.591Z,87.40
2017-07-21T17:13:45.301Z,87.80
2017-07-21T17:16:14.364Z,87.40
2017-07-21T17:18:42.567Z,86.90
2017-07-21T17:21:14.343Z,85.50
2017-07-21T17:23:43.001Z,85.30
2017-07-21T17:26:23.454Z,84.60
2017-07-21T17:28:53.308Z,86.40
2017-07-21T17:31:23.068Z,85.70
2017-07-21T17:33:51.981Z,82.70
2017-07-21T17:36:20.098Z,82.70
2017-07-21T17:38:50.302Z,82.50
2017-07-21T17:41:19.829Z,83.70
2017-07-21T17:43:48.026Z,83.90
2017-07-21T17:46:16.161Z,83.80
2017-07-21T17:48:45.329Z,83.40
2017-07-21T17:51:14.091Z,84.20
2017-07-21T17:53:43.009Z,84.40
2017-07-21T17:56:11.145Z,84.00
2017-07-21T17:58:39.284Z,84.30
2017-07-21T18:01:08.809Z,84.40
2017-07-21T18:03:37.238Z,84.30
2017-07-21T18:06:06.638Z,84.30
2017-07-21T18:08:45.442Z,83.90
2017-07-21T18:11:13.741Z,84.10
2017-07-21T18:13:41.874Z,84.30
2017-07-21T18:16:11.841Z,84.40
2017-07-21T18:18:40.000Z,85.40
2017-07-21T18:21:14.433Z,84.80
2017-07-21T18:23:42.825Z,84.80
2017-07-21T18:26:10.980Z,85.30
2017-07-21T18:28:39.185Z,85.50
2017-07-21T18:31:08.464Z,85.40
2017-07-21T18:33:36.649Z,85.20
2017-07-21T18:36:04.779Z,86.00
2017-07-21T18:38:32.942Z,86.40
2017-07-21T18:41:03.533Z,85.70
2017-07-21T18:43:33.819Z,85.80
2017-07-21T18:46:11.468Z,86.30
2017-07-21T18:48:40.603Z,87.40
2017-07-21T18:51:14.369Z,87.70
2017-07-21T18:53:43.378Z,87.90
2017-07-21T18:56:15.482Z,87.80
2017-07-21T19:01:28.119Z,89.50
2017-07-21T19:03:56.378Z,90.20
2017-07-21T19:06:26.691Z,90.50
2017-07-21T19:08:57.557Z,91.00
2017-07-21T19:11:25.721Z,91.60
2017-07-21T19:13:53.835Z,92.10
2017-07-21T19:16:22.996Z,92.20
2017-07-21T19:18:53.665Z,92.60
2017-07-21T19:21:23.409Z,93.20
2017-07-21T19:24:14.641Z,93.70
2017-07-21T19:26:42.976Z,93.90
2017-07-21T19:29:21.996Z,94.40
2017-07-21T19:34:36.479Z,94.90
2017-07-21T19:37:28.935Z,95.00
2017-07-21T19:40:01.552Z,94.80
2017-07-21T19:42:31.249Z,95.70
2017-07-21T19:45:01.904Z,95.90
2017-07-21T19:47:32.630Z,96.20
2017-07-21T19:50:03.082Z,96.50
2017-07-21T19:52:38.205Z,96.60
2017-07-21T19:55:07.133Z,96.90
2017-07-21T19:57:37.199Z,97.20
2017-07-21T20:00:14.248Z,97.90
2017-07-21T20:02:54.264Z,97.60
2017-07-21T20:05:41.084Z,98.00
2017-07-21T20:08:17.657Z,98.20
2017-07-21T20:16:23.878Z,98.80
2017-07-21T20:21:45.003Z,99.10
2017-07-21T20:24:25.479Z,99.50
2017-07-21T20:30:03.487Z,99.80
2017-07-21T20:32:32.312Z,99.90
2017-07-21T20:35:02.511Z,99.90
2017-07-21T20:37:32.406Z,99.90
2017-07-21T20:40:02.034Z,99.90
2017-07-21T20:42:30.197Z,99.90
2017-07-21T20:45:47.575Z,99.90
2017-07-21T20:48:35.131Z,99.90
2017-07-21T20:51:04.270Z,99.90
2017-07-21T20:53:36.315Z,99.90
2017-07-21T20:56:10.258Z,99.90
2017-07-21T20:58:38.705Z,99.90
2017-07-21T21:01:06.954Z,99.90
2017-07-21T21:03:52.945Z,99.90
2017-07-21T21:06:22.001Z,99.90
2017-07-21T21:08:56.188Z,99.90
2017-07-21T21:11:24.274Z,99.90
2017-07-21T21:13:53.245Z,99.90
2017-07-21T21:16:21.468Z,99.90
2017-07-21T21:18:49.605Z,99.90
2017-07-21T21:21:19.044Z,99.90
2017-07-21T21:23:47.242Z,99.90
2017-07-21T21:26:17.580Z,99.90
2017-07-21T21:28:46.897Z,99.90
2017-07-21T21:31:16.229Z,99.90
2017-07-21T21:33:44.395Z,99.90
2017-07-21T21:36:18.691Z,99.90
2017-07-21T21:38:48.163Z,99.90
2017-07-21T21:41:18.524Z,99.90
2017-07-21T21:43:47.279Z,99.90
2017-07-21T21:46:18.406Z,99.90
2017-07-21T21:48:47.325Z,99.90
2017-07-21T21:51:17.487Z,99.90
2017-07-21T21:53:46.522Z,99.90
2017-07-21T21:56:14.735Z,99.90
2017-07-21T21:58:42.948Z,99.90
2017-07-21T22:01:11.090Z,99.90
2017-07-21T22:03:41.231Z,99.90
2017-07-21T22:06:10.147Z,99.90
2017-07-21T22:08:38.318Z,99.90
2017-07-21T22:11:07.255Z,99.90
2017-07-21T22:16:30.531Z,99.90
2017-07-21T22:18:59.729Z,99.90
2017-07-21T22:21:27.852Z,99.90
2017-07-21T22:23:56.091Z,99.90
2017-07-21T22:26:24.214Z,99.90
2017-07-21T22:28:52.454Z,99.90
2017-07-21T22:31:21.938Z,99.90
2017-07-21T22:33:52.062Z,99.90
2017-07-21T22:36:22.049Z,99.90
2017-07-21T22:38:50.250Z,99.90
2017-07-21T22:41:18.784Z,99.90
2017-07-21T22:43:47.987Z,99.90
2017-07-21T22:46:17.967Z,99.90
2017-07-21T22:48:46.067Z,99.90
2017-07-21T22:51:20.823Z,99.90
2017-07-21T22:53:49.406Z,99.90
2017-07-21T22:56:17.521Z,99.90
2017-07-21T22:58:46.536Z,99.90
2017-07-21T23:01:14.695Z,99.90
2017-07-21T23:03:43.855Z,99.90
2017-07-21T23:06:15.051Z,99.90
2017-07-21T23:09:04.084Z,99.90
2017-07-21T23:11:36.281Z,99.90
2017-07-21T23:14:05.104Z,99.90
2017-07-21T23:16:35.762Z,99.90
2017-07-21T23:19:03.849Z,99.90
2017-07-21T23:21:32.727Z,99.90
2017-07-21T23:24:00.819Z,99.90
2017-07-21T23:26:28.913Z,99.90
2017-07-21T23:28:57.906Z,99.90
2017-07-21T23:31:26.043Z,99.90
2017-07-21T23:33:55.228Z,99.90
2017-07-21T23:36:24.050Z,99.90
2017-07-21T23:38:52.193Z,99.90
2017-07-21T23:41:20.277Z,99.90
2017-07-21T23:43:50.632Z,99.90
2017-07-21T23:46:18.721Z,99.90
2017-07-21T23:48:59.573Z,99.90
2017-07-21T23:51:27.794Z,99.90
2017-07-21T23:53:56.747Z,99.90
2017-07-21T23:56:24.851Z,99.90
2017-07-21T23:58:53.781Z,99.90
